sensor_id;sensor_type;location;lat;lon;timestamp;pressure;altitude;pressure_sealevel;temperature;humidity
44675;BME280;30388;52.038;-1.478;2023-02-03T00:02:05;65565.93;;;8.06;100.00
44675;BME280;30388;52.038;-1.478;2023-02-03T00:04:33;65564.63;;;8.27;100.00
44675;BME280;30388;52.038;-1.478;2023-02-03T00:07:00;65517.01;;;8.16;100.00
44675;BME280;30388;52.038;-1.478;2023-02-03T00:09:27;65443.81;;;7.23;100.00
44675;BME280;30388;52.038;-1.478;2023-02-03T00:11:55;65507.39;;;7.55;100.00
44675;BME280;30388;52.038;-1.478;2023-02-03T00:14:23;65416.73;;;7.12;100.00
44675;BME280;30388;52.038;-1.478;2023-02-03T00:16:49;65457.81;;;7.41;100.00
44675;BME280;30388;52.038;-1.478;2023-02-03T00:19:17;65465.97;;;7.51;100.00
44675;BME280;30388;52.038;-1.478;2023-02-03T00:21:44;65498.38;;;7.43;100.00
44675;BME280;30388;52.038;-1.478;2023-02-03T00:24:11;65462.02;;;7.46;100.00
44675;BME280;30388;52.038;-1.478;2023-02-03T00:26:40;65564.93;;;8.28;100.00
44675;BME280;30388;52.038;-1.478;2023-02-03T00:29:07;65574.29;;;8.40;100.00
44675;BME280;30388;52.038;-1.478;2023-02-03T00:31:35;65510.61;;;7.59;100.00
44675;BME280;30388;52.038;-1.478;2023-02-03T00:34:02;65547.45;;;8.05;100.00
44675;BME280;30388;52.038;-1.478;2023-02-03T00:36:29;65443.45;;;7.23;100.00
44675;BME280;30388;52.038;-1.478;2023-02-03T00:38:56;65500.25;;;7.95;100.00
44675;BME280;30388;52.038;-1.478;2023-02-03T00:41:28;65479.50;;;7.68;100.00
44675;BME280;30388;52.038;-1.478;2023-02-03T00:43:56;65528.57;;;7.82;100.00
44675;BME280;30388;52.038;-1.478;2023-02-03T00:46:23;65561.86;;;8.24;100.00
44675;BME280;30388;52.038;-1.478;2023-02-03T00:48:50;65546.81;;;8.31;100.00
44675;BME280;30388;52.038;-1.478;2023-02-03T00:51:17;65506.97;;;7.81;100.00
44675;BME280;30388;52.038;-1.478;2023-02-03T00:53:44;65521.84;;;8.23;100.00
44675;BME280;30388;52.038;-1.478;2023-02-03T00:56:11;65483.06;;;7.51;100.00
44675;BME280;30388;52.038;-1.478;2023-02-03T00:58:39;65560.38;;;8.22;100.00
44675;BME280;30388;52.038;-1.478;2023-02-03T01:01:06;65508.45;;;7.56;100.00
44675;BME280;30388;52.038;-1.478;2023-02-03T01:03:34;65526.59;;;8.06;100.00
44675;BME280;30388;52.038;-1.478;2023-02-03T01:06:10;65429.02;;;7.53;100.00
44675;BME280;30388;52.038;-1.478;2023-02-03T01:08:37;65405.13;;;6.75;100.00
44675;BME280;30388;52.038;-1.478;2023-02-03T01:11:06;65409.41;;;6.80;100.00
44675;BME280;30388;52.038;-1.478;2023-02-03T01:13:34;65383.77;;;6.70;100.00
44675;BME280;30388;52.038;-1.478;2023-02-03T01:16:02;65390.40;;;6.55;100.00
44675;BME280;30388;52.038;-1.478;2023-02-03T01:18:30;65427.80;;;7.24;100.00
44675;BME280;30388;52.038;-1.478;2023-02-03T01:20:57;65346.21;;;6.48;100.00
44675;BME280;30388;52.038;-1.478;2023-02-03T01:23:30;65388.68;;;6.76;100.00
44675;BME280;30388;52.038;-1.478;2023-02-03T01:26:02;65397.68;;;6.86;100.00
44675;BME280;30388;52.038;-1.478;2023-02-03T01:28:30;65328.76;;;6.25;100.00
44675;BME280;30388;52.038;-1.478;2023-02-03T01:31:07;65419.65;;;6.92;100.00
44675;BME280;30388;52.038;-1.478;2023-02-03T01:33:35;65421.82;;;6.96;100.00
44675;BME280;30388;52.038;-1.478;2023-02-03T01:36:03;65382.71;;;6.68;100.00
44675;BME280;30388;52.038;-1.478;2023-02-03T01:38:30;65396.90;;;7.13;100.00
44675;BME280;30388;52.038;-1.478;2023-02-03T01:40:57;65378.48;;;6.62;100.00
44675;BME280;30388;52.038;-1.478;2023-02-03T01:43:29;65424.96;;;6.99;100.00
44675;BME280;30388;52.038;-1.478;2023-02-03T01:45:58;65382.16;;;6.95;100.00
44675;BME280;30388;52.038;-1.478;2023-02-03T01:48:28;65399.29;;;6.89;100.00
44675;BME280;30388;52.038;-1.478;2023-02-03T01:50:59;65365.91;;;6.47;100.00
44675;BME280;30388;52.038;-1.478;2023-02-03T01:53:28;65294.23;;;6.32;100.00
44675;BME280;30388;52.038;-1.478;2023-02-03T01:55:56;65382.56;;;6.67;100.00
44675;BME280;30388;52.038;-1.478;2023-02-03T01:58:26;65369.73;;;6.78;100.00
44675;BME280;30388;52.038;-1.478;2023-02-03T02:00:55;65440.22;;;7.18;100.00
44675;BME280;30388;52.038;-1.478;2023-02-03T02:03:26;65349.21;;;6.26;100.00
44675;BME280;30388;52.038;-1.478;2023-02-03T02:06:00;65346.24;;;6.49;100.00
44675;BME280;30388;52.038;-1.478;2023-02-03T02:08:30;65389.72;;;7.04;100.00
44675;BME280;30388;52.038;-1.478;2023-02-03T02:10:58;65385.44;;;6.72;100.00
44675;BME280;30388;52.038;-1.478;2023-02-03T02:13:26;65400.86;;;6.69;100.00
44675;BME280;30388;52.038;-1.478;2023-02-03T02:16:01;65372.62;;;6.82;100.00
44675;BME280;30388;52.038;-1.478;2023-02-03T02:18:41;65349.30;;;6.53;100.00
44675;BME280;30388;52.038;-1.478;2023-02-03T02:21:39;65343.98;;;6.45;100.00
44675;BME280;30388;52.038;-1.478;2023-02-03T02:24:26;65386.54;;;6.73;100.00
44675;BME280;30388;52.038;-1.478;2023-02-03T02:27:04;65421.96;;;7.18;100.00
44675;BME280;30388;52.038;-1.478;2023-02-03T02:29:55;65371.83;;;6.54;100.00
44675;BME280;30388;52.038;-1.478;2023-02-03T02:32:35;65365.62;;;6.47;100.00
44675;BME280;30388;52.038;-1.478;2023-02-03T02:35:16;65373.68;;;6.84;100.00
44675;BME280;30388;52.038;-1.478;2023-02-03T02:37:49;65370.54;;;6.53;100.00
44675;BME280;30388;52.038;-1.478;2023-02-03T02:40:24;65357.07;;;6.62;100.00
44675;BME280;30388;52.038;-1.478;2023-02-03T02:43:01;65429.83;;;7.06;100.00
44675;BME280;30388;52.038;-1.478;2023-02-03T02:45:33;65431.43;;;7.08;100.00
44675;BME280;30388;52.038;-1.478;2023-02-03T02:48:06;65432.96;;;7.10;100.00
44675;BME280;30388;52.038;-1.478;2023-02-03T02:50:40;65359.28;;;6.65;100.00
44675;BME280;30388;52.038;-1.478;2023-02-03T02:53:09;65414.09;;;6.86;100.00
44675;BME280;30388;52.038;-1.478;2023-02-03T02:55:39;65461.82;;;7.46;100.00
44675;BME280;30388;52.038;-1.478;2023-02-03T02:58:10;65432.08;;;7.08;100.00
44675;BME280;30388;52.038;-1.478;2023-02-03T03:00:40;65445.02;;;7.47;100.00
44675;BME280;30388;52.038;-1.478;2023-02-03T03:03:13;65460.07;;;7.44;100.00
44675;BME280;30388;52.038;-1.478;2023-02-03T03:05:43;65420.87;;;6.94;100.00
44675;BME280;30388;52.038;-1.478;2023-02-03T03:08:13;65438.84;;;7.16;100.00
44675;BME280;30388;52.038;-1.478;2023-02-03T03:10:42;65472.86;;;7.60;100.00
44675;BME280;30388;52.038;-1.478;2023-02-03T03:13:18;65455.96;;;7.38;100.00
44675;BME280;30388;52.038;-1.478;2023-02-03T03:15:50;65475.46;;;7.14;100.00
44675;BME280;30388;52.038;-1.478;2023-02-03T03:18:23;65484.95;;;7.76;100.00
44675;BME280;30388;52.038;-1.478;2023-02-03T03:20:56;65423.42;;;7.46;100.00
44675;BME280;30388;52.038;-1.478;2023-02-03T03:23:28;65421.57;;;7.17;100.00
44675;BME280;30388;52.038;-1.478;2023-02-03T03:26:01;65486.19;;;7.77;100.00
44675;BME280;30388;52.038;-1.478;2023-02-03T03:28:42;65430.12;;;7.28;100.00
44675;BME280;30388;52.038;-1.478;2023-02-03T03:31:13;65468.34;;;7.55;100.00
44675;BME280;30388;52.038;-1.478;2023-02-03T03:33:41;65420.20;;;7.42;100.00
44675;BME280;30388;52.038;-1.478;2023-02-03T03:36:17;65451.95;;;7.34;100.00
44675;BME280;30388;52.038;-1.478;2023-02-03T03:38:50;65497.93;;;7.69;100.00
44675;BME280;30388;52.038;-1.478;2023-02-03T03:41:26;65402.60;;;7.20;100.00
44675;BME280;30388;52.038;-1.478;2023-02-03T03:43:57;65417.85;;;7.13;100.00
44675;BME280;30388;52.038;-1.478;2023-02-03T03:46:28;65468.20;;;7.54;100.00
44675;BME280;30388;52.038;-1.478;2023-02-03T03:49:00;65444.33;;;7.24;100.00
44675;BME280;30388;52.038;-1.478;2023-02-03T03:51:31;65485.15;;;7.76;100.00
44675;BME280;30388;52.038;-1.478;2023-02-03T03:54:03;65488.60;;;7.80;100.00
44675;BME280;30388;52.038;-1.478;2023-02-03T03:56:37;65449.43;;;7.31;100.00
44675;BME280;30388;52.038;-1.478;2023-02-03T03:59:06;65440.31;;;7.41;100.00
44675;BME280;30388;52.038;-1.478;2023-02-03T04:01:36;65533.96;;;8.37;100.00
44675;BME280;30388;52.038;-1.478;2023-02-03T04:04:08;65541.71;;;8.25;100.00
44675;BME280;30388;52.038;-1.478;2023-02-03T04:06:38;65563.71;;;8.26;100.00
44675;BME280;30388;52.038;-1.478;2023-02-03T04:09:05;65562.59;;;8.25;100.00
44675;BME280;30388;52.038;-1.478;2023-02-03T04:11:33;65564.27;;;8.27;100.00
44675;BME280;30388;52.038;-1.478;2023-02-03T04:14:00;65563.22;;;8.26;100.00
44675;BME280;30388;52.038;-1.478;2023-02-03T04:16:27;65590.61;;;8.60;100.00
44675;BME280;30388;52.038;-1.478;2023-02-03T04:18:54;65562.25;;;8.26;100.00
44675;BME280;30388;52.038;-1.478;2023-02-03T04:21:22;65624.46;;;9.03;100.00
44675;BME280;30388;52.038;-1.478;2023-02-03T04:23:49;65579.35;;;8.46;100.00
44675;BME280;30388;52.038;-1.478;2023-02-03T04:26:17;65591.13;;;8.17;100.00
44675;BME280;30388;52.038;-1.478;2023-02-03T04:28:44;65641.79;;;9.03;100.00
44675;BME280;30388;52.038;-1.478;2023-02-03T04:31:12;65542.08;;;7.98;100.00
44675;BME280;30388;52.038;-1.478;2023-02-03T04:33:39;65608.40;;;8.61;100.00
44675;BME280;30388;52.038;-1.478;2023-02-03T04:36:07;65539.57;;;7.96;100.00
44675;BME280;30388;52.038;-1.478;2023-02-03T04:38:35;65609.83;;;8.85;100.00
44675;BME280;30388;52.038;-1.478;2023-02-03T04:41:02;65533.32;;;7.88;100.00
44675;BME280;30388;52.038;-1.478;2023-02-03T04:43:29;65513.32;;;8.11;100.00
44675;BME280;30388;52.038;-1.478;2023-02-03T04:45:58;65485.96;;;7.76;100.00
44675;BME280;30388;52.038;-1.478;2023-02-03T04:48:26;65545.94;;;8.04;100.00
44675;BME280;30388;52.038;-1.478;2023-02-03T04:50:54;65590.95;;;8.39;100.00
44675;BME280;30388;52.038;-1.478;2023-02-03T04:53:22;65562.19;;;8.23;100.00
44675;BME280;30388;52.038;-1.478;2023-02-03T04:55:49;65533.48;;;7.88;100.00
44675;BME280;30388;52.038;-1.478;2023-02-03T04:58:17;65577.08;;;8.43;100.00
44675;BME280;30388;52.038;-1.478;2023-02-03T05:00:43;65483.55;;;7.25;100.00
44675;BME280;30388;52.038;-1.478;2023-02-03T05:03:11;65532.79;;;8.14;100.00
44675;BME280;30388;52.038;-1.478;2023-02-03T05:05:38;65516.65;;;7.67;100.00
44675;BME280;30388;52.038;-1.478;2023-02-03T05:08:05;65509.42;;;8.06;100.00
44675;BME280;30388;52.038;-1.478;2023-02-03T05:10:32;65509.87;;;7.85;100.00
44675;BME280;30388;52.038;-1.478;2023-02-03T05:12:59;65524.02;;;7.76;100.00
44675;BME280;30388;52.038;-1.478;2023-02-03T05:15:26;65561.28;;;8.24;100.00
44675;BME280;30388;52.038;-1.478;2023-02-03T05:17:54;65493.85;;;7.87;100.00
44675;BME280;30388;52.038;-1.478;2023-02-03T05:20:23;65487.12;;;7.30;100.00
44675;BME280;30388;52.038;-1.478;2023-02-03T05:22:50;65573.35;;;8.39;100.00
44675;BME280;30388;52.038;-1.478;2023-02-03T05:25:17;65518.05;;;7.95;100.00
44675;BME280;30388;52.038;-1.478;2023-02-03T05:27:44;65476.99;;;7.66;100.00
44675;BME280;30388;52.038;-1.478;2023-02-03T05:30:12;65635.91;;;9.18;100.00
44675;BME280;30388;52.038;-1.478;2023-02-03T05:32:39;65522.17;;;7.73;100.00
44675;BME280;30388;52.038;-1.478;2023-02-03T05:35:06;65579.08;;;8.46;100.00
44675;BME280;30388;52.038;-1.478;2023-02-03T05:37:33;65530.20;;;7.86;100.00
44675;BME280;30388;52.038;-1.478;2023-02-03T05:40:01;65568.96;;;8.33;100.00
44675;BME280;30388;52.038;-1.478;2023-02-03T05:42:28;65481.82;;;7.22;100.00
44675;BME280;30388;52.038;-1.478;2023-02-03T05:44:54;65607.61;;;8.60;100.00
44675;BME280;30388;52.038;-1.478;2023-02-03T05:47:22;65591.85;;;8.18;100.00
44675;BME280;30388;52.038;-1.478;2023-02-03T05:49:49;65573.41;;;8.39;100.00
44675;BME280;30388;52.038;-1.478;2023-02-03T05:52:15;65506.36;;;7.54;100.00
44675;BME280;30388;52.038;-1.478;2023-02-03T05:54:42;65564.92;;;8.28;100.00
44675;BME280;30388;52.038;-1.478;2023-02-03T05:57:09;65616.40;;;8.93;100.00
44675;BME280;30388;52.038;-1.478;2023-02-03T05:59:37;65639.40;;;8.78;100.00
44675;BME280;30388;52.038;-1.478;2023-02-03T06:02:04;65599.68;;;8.72;100.00
44675;BME280;30388;52.038;-1.478;2023-02-03T06:04:31;65532.36;;;7.87;100.00
44675;BME280;30388;52.038;-1.478;2023-02-03T06:06:59;65524.11;;;7.76;100.00
44675;BME280;30388;52.038;-1.478;2023-02-03T06:09:26;65557.02;;;8.18;100.00
44675;BME280;30388;52.038;-1.478;2023-02-03T06:11:53;65643.81;;;9.05;100.00
44675;BME280;30388;52.038;-1.478;2023-02-03T06:14:20;65675.98;;;9.24;100.00
44675;BME280;30388;52.038;-1.478;2023-02-03T06:16:48;65620.03;;;8.53;100.00
44675;BME280;30388;52.038;-1.478;2023-02-03T06:19:15;65620.53;;;8.76;100.00
44675;BME280;30388;52.038;-1.478;2023-02-03T06:21:41;65734.63;;;9.98;100.00
44675;BME280;30388;52.038;-1.478;2023-02-03T06:24:09;65689.20;;;9.40;100.00
44675;BME280;30388;52.038;-1.478;2023-02-03T06:26:36;65731.04;;;9.45;100.00
44675;BME280;30388;52.038;-1.478;2023-02-03T06:29:03;65694.69;;;9.48;100.00
44675;BME280;30388;52.038;-1.478;2023-02-03T06:31:30;65596.87;;;8.24;100.00
44675;BME280;30388;52.038;-1.478;2023-02-03T06:33:57;65676.70;;;9.25;100.00
44675;BME280;30388;52.038;-1.478;2023-02-03T06:36:25;65647.38;;;9.09;100.00
44675;BME280;30388;52.038;-1.478;2023-02-03T06:38:52;65697.74;;;9.51;100.00
44675;BME280;30388;52.038;-1.478;2023-02-03T06:41:19;65705.88;;;9.62;100.00
44675;BME280;30388;52.038;-1.478;2023-02-03T06:43:46;65711.60;;;9.42;100.00
44675;BME280;30388;52.038;-1.478;2023-02-03T06:46:14;65629.07;;;8.64;100.00
44675;BME280;30388;52.038;-1.478;2023-02-03T06:48:40;65614.16;;;8.46;100.00
44675;BME280;30388;52.038;-1.478;2023-02-03T06:51:07;65668.56;;;9.15;100.00
44675;BME280;30388;52.038;-1.478;2023-02-03T06:53:35;65670.78;;;9.18;100.00
44675;BME280;30388;52.038;-1.478;2023-02-03T06:56:02;65674.25;;;9.22;100.00
44675;BME280;30388;52.038;-1.478;2023-02-03T06:58:29;65615.53;;;8.48;100.00
44675;BME280;30388;52.038;-1.478;2023-02-03T07:00:56;65635.84;;;8.73;100.00
44675;BME280;30388;52.038;-1.478;2023-02-03T07:03:23;65692.51;;;9.19;100.00
44675;BME280;30388;52.038;-1.478;2023-02-03T07:05:50;65729.87;;;9.93;100.00
44675;BME280;30388;52.038;-1.478;2023-02-03T07:08:17;65688.55;;;9.13;100.00
44675;BME280;30388;52.038;-1.478;2023-02-03T07:10:45;65661.25;;;9.06;100.00
44675;BME280;30388;52.038;-1.478;2023-02-03T07:13:12;65722.18;;;9.83;100.00
44675;BME280;30388;52.038;-1.478;2023-02-03T07:15:39;65669.95;;;8.89;100.00
44675;BME280;30388;52.038;-1.478;2023-02-03T07:18:06;65723.94;;;9.58;100.00
44675;BME280;30388;52.038;-1.478;2023-02-03T07:20:33;65754.14;;;9.74;100.00
44675;BME280;30388;52.038;-1.478;2023-02-03T07:23:01;65607.45;;;8.38;100.00
44675;BME280;30388;52.038;-1.478;2023-02-03T07:25:28;65670.97;;;9.18;100.00
44675;BME280;30388;52.038;-1.478;2023-02-03T07:27:55;65605.41;;;8.35;100.00
44675;BME280;30388;52.038;-1.478;2023-02-03T07:30:23;65601.64;;;8.29;100.00
44675;BME280;30388;52.038;-1.478;2023-02-03T07:32:51;65685.26;;;9.35;100.00
44675;BME280;30388;52.038;-1.478;2023-02-03T07:35:19;65658.59;;;9.02;100.00
44675;BME280;30388;52.038;-1.478;2023-02-03T07:37:46;65601.49;;;8.52;100.00
44675;BME280;30388;52.038;-1.478;2023-02-03T07:40:14;65618.14;;;8.73;100.00
44675;BME280;30388;52.038;-1.478;2023-02-03T07:42:42;65529.41;;;7.61;100.00
44675;BME280;30388;52.038;-1.478;2023-02-03T07:45:10;65563.26;;;8.03;100.00
44675;BME280;30388;52.038;-1.478;2023-02-03T07:47:38;65565.28;;;8.06;100.00
44675;BME280;30388;52.038;-1.478;2023-02-03T07:50:06;65537.45;;;7.93;100.00
44675;BME280;30388;52.038;-1.478;2023-02-03T07:52:34;65544.75;;;7.80;100.00
44675;BME280;30388;52.038;-1.478;2023-02-03T07:55:01;65555.35;;;7.93;100.00
44675;BME280;30388;52.038;-1.478;2023-02-03T07:57:29;65642.06;;;8.81;100.00
44675;BME280;30388;52.038;-1.478;2023-02-03T07:59:55;65646.45;;;8.87;100.00
44675;BME280;30388;52.038;-1.478;2023-02-03T08:02:23;65599.08;;;8.49;100.00
44675;BME280;30388;52.038;-1.478;2023-02-03T08:04:50;65598.18;;;8.48;100.00
44675;BME280;30388;52.038;-1.478;2023-02-03T08:07:17;65559.02;;;8.21;100.00
44675;BME280;30388;52.038;-1.478;2023-02-03T08:09:44;65559.05;;;8.21;100.00
44675;BME280;30388;52.038;-1.478;2023-02-03T08:12:11;65539.09;;;7.73;100.00
44675;BME280;30388;52.038;-1.478;2023-02-03T08:14:38;65585.12;;;8.31;100.00
44675;BME280;30388;52.038;-1.478;2023-02-03T08:17:05;65539.07;;;7.73;100.00
44675;BME280;30388;52.038;-1.478;2023-02-03T08:19:33;65581.31;;;8.48;100.00
44675;BME280;30388;52.038;-1.478;2023-02-03T08:22:00;65562.33;;;8.02;100.00
44675;BME280;30388;52.038;-1.478;2023-02-03T08:24:27;65622.75;;;8.79;100.00
44675;BME280;30388;52.038;-1.478;2023-02-03T08:26:54;65608.98;;;8.61;100.00
44675;BME280;30388;52.038;-1.478;2023-02-03T08:29:21;65549.77;;;8.08;100.00
44675;BME280;30388;52.038;-1.478;2023-02-03T08:31:49;65480.31;;;7.70;100.00
44675;BME280;30388;52.038;-1.478;2023-02-03T08:34:16;65509.62;;;7.57;100.00
44675;BME280;30388;52.038;-1.478;2023-02-03T08:36:43;65461.35;;;7.45;100.00
44675;BME280;30388;52.038;-1.478;2023-02-03T08:39:10;65432.80;;;7.09;100.00
44675;BME280;30388;52.038;-1.478;2023-02-03T08:41:38;65442.32;;;6.72;100.00
44675;BME280;30388;52.038;-1.478;2023-02-03T08:44:05;65419.57;;;6.43;100.00
44675;BME280;30388;52.038;-1.478;2023-02-03T08:46:32;65430.34;;;6.84;100.00
44675;BME280;30388;52.038;-1.478;2023-02-03T08:48:59;65440.54;;;7.20;100.00
44675;BME280;30388;52.038;-1.478;2023-02-03T08:51:26;65430.19;;;7.06;100.00
44675;BME280;30388;52.038;-1.478;2023-02-03T08:53:53;65478.67;;;7.46;100.00
44675;BME280;30388;52.038;-1.478;2023-02-03T08:56:21;65496.85;;;7.91;100.00
44675;BME280;30388;52.038;-1.478;2023-02-03T08:58:48;65436.37;;;7.14;100.00
44675;BME280;30388;52.038;-1.478;2023-02-03T09:01:15;65460.81;;;7.23;100.00
44675;BME280;30388;52.038;-1.478;2023-02-03T09:03:42;65485.33;;;7.54;100.00
44675;BME280;30388;52.038;-1.478;2023-02-03T09:06:10;65454.09;;;7.13;100.00
44675;BME280;30388;52.038;-1.478;2023-02-03T09:08:38;65426.62;;;7.01;100.00
44675;BME280;30388;52.038;-1.478;2023-02-03T09:11:08;65458.78;;;7.43;100.00
44675;BME280;30388;52.038;-1.478;2023-02-03T09:13:36;65490.36;;;7.60;100.00
44675;BME280;30388;52.038;-1.478;2023-02-03T09:16:04;65438.47;;;7.17;100.00
44675;BME280;30388;52.038;-1.478;2023-02-03T09:18:32;65385.10;;;6.98;100.00
44675;BME280;30388;52.038;-1.478;2023-02-03T09:21:00;65395.14;;;6.61;100.00
44675;BME280;30388;52.038;-1.478;2023-02-03T09:23:28;65437.47;;;7.15;100.00
44675;BME280;30388;52.038;-1.478;2023-02-03T09:25:55;65429.78;;;7.06;100.00
44675;BME280;30388;52.038;-1.478;2023-02-03T09:28:23;65442.25;;;7.21;100.00
44675;BME280;30388;52.038;-1.478;2023-02-03T09:30:50;65515.41;;;7.65;100.00
44675;BME280;30388;52.038;-1.478;2023-02-03T09:33:17;65534.36;;;8.16;100.00
44675;BME280;30388;52.038;-1.478;2023-02-03T09:35:51;65534.66;;;7.90;100.00
44675;BME280;30388;52.038;-1.478;2023-02-03T09:38:18;65562.24;;;8.25;100.00
44675;BME280;30388;52.038;-1.478;2023-02-03T09:40:50;65477.96;;;7.17;100.00
44675;BME280;30388;52.038;-1.478;2023-02-03T09:43:30;65468.66;;;7.55;100.00
44675;BME280;30388;52.038;-1.478;2023-02-03T09:46:00;65460.38;;;7.66;100.00
44675;BME280;30388;52.038;-1.478;2023-02-03T09:48:34;65459.89;;;7.44;100.00
44675;BME280;30388;52.038;-1.478;2023-02-03T09:51:02;65426.83;;;7.03;100.00
44675;BME280;30388;52.038;-1.478;2023-02-03T09:53:34;65496.45;;;7.91;100.00
44675;BME280;30388;52.038;-1.478;2023-02-03T09:56:03;65484.71;;;7.54;100.00
44675;BME280;30388;52.038;-1.478;2023-02-03T09:58:33;65428.95;;;7.05;100.00
44675;BME280;30388;52.038;-1.478;2023-02-03T10:01:02;65444.66;;;7.24;100.00
44675;BME280;30388;52.038;-1.478;2023-02-03T10:03:37;65458.85;;;7.65;100.00
44675;BME280;30388;52.038;-1.478;2023-02-03T10:06:13;65470.14;;;7.57;100.00
44675;BME280;30388;52.038;-1.478;2023-02-03T10:09:13;65429.90;;;7.29;100.00
44675;BME280;30388;52.038;-1.478;2023-02-03T10:11:55;65473.61;;;7.82;100.00
44675;BME280;30388;52.038;-1.478;2023-02-03T10:14:37;65455.83;;;7.61;100.00
44675;BME280;30388;52.038;-1.478;2023-02-03T10:17:20;65439.48;;;7.67;100.00
44675;BME280;30388;52.038;-1.478;2023-02-03T10:19:55;65395.91;;;7.12;100.00
44675;BME280;30388;52.038;-1.478;2023-02-03T10:22:28;65466.36;;;7.53;100.00
44675;BME280;30388;52.038;-1.478;2023-02-03T10:24:59;65437.88;;;7.39;100.00
44675;BME280;30388;52.038;-1.478;2023-02-03T10:27:30;65525.31;;;8.28;100.00
44675;BME280;30388;52.038;-1.478;2023-02-03T10:30:05;65545.40;;;8.04;100.00
44675;BME280;30388;52.038;-1.478;2023-02-03T10:32:40;65524.54;;;8.26;100.00
44675;BME280;30388;52.038;-1.478;2023-02-03T10:35:11;65511.20;;;7.87;100.00
44675;BME280;30388;52.038;-1.478;2023-02-03T10:37:42;65477.99;;;7.66;100.00
44675;BME280;30388;52.038;-1.478;2023-02-03T10:40:12;65479.82;;;7.70;100.00
44675;BME280;30388;52.038;-1.478;2023-02-03T10:42:40;65550.49;;;8.11;100.00
44675;BME280;30388;52.038;-1.478;2023-02-03T10:45:11;65604.88;;;8.79;100.00
44675;BME280;30388;52.038;-1.478;2023-02-03T10:47:43;65524.09;;;8.48;100.00
44675;BME280;30388;52.038;-1.478;2023-02-03T10:50:15;65472.46;;;7.82;100.00
44675;BME280;30388;52.038;-1.478;2023-02-03T10:52:43;65609.71;;;8.63;100.00
44675;BME280;30388;52.038;-1.478;2023-02-03T10:55:29;65525.11;;;8.05;100.00
44675;BME280;30388;52.038;-1.478;2023-02-03T10:57:57;65520.47;;;7.99;100.00
44675;BME280;30388;52.038;-1.478;2023-02-03T11:00:33;65516.48;;;7.67;100.00
44675;BME280;30388;52.038;-1.478;2023-02-03T11:03:04;65591.52;;;8.62;100.00
44675;BME280;30388;52.038;-1.478;2023-02-03T11:05:33;65506.47;;;7.81;100.00
44675;BME280;30388;52.038;-1.478;2023-02-03T11:08:00;65562.29;;;8.52;100.00
44675;BME280;30388;52.038;-1.478;2023-02-03T11:10:31;65545.45;;;8.04;100.00
44675;BME280;30388;52.038;-1.478;2023-02-03T11:13:17;65590.05;;;8.60;100.00
44675;BME280;30388;52.038;-1.478;2023-02-03T11:15:56;65565.83;;;8.30;100.00
44675;BME280;30388;52.038;-1.478;2023-02-03T11:18:34;65573.86;;;8.39;100.00
44675;BME280;30388;52.038;-1.478;2023-02-03T11:21:07;65645.39;;;9.08;100.00
44675;BME280;30388;52.038;-1.478;2023-02-03T11:23:36;65624.17;;;8.80;100.00
44675;BME280;30388;52.038;-1.478;2023-02-03T11:26:11;65595.99;;;8.67;100.00
44675;BME280;30388;52.038;-1.478;2023-02-03T11:28:42;65606.71;;;8.81;100.00
44675;BME280;30388;52.038;-1.478;2023-02-03T11:31:17;65611.81;;;8.87;100.00
44675;BME280;30388;52.038;-1.478;2023-02-03T11:33:47;65542.09;;;8.49;100.00
44675;BME280;30388;52.038;-1.478;2023-02-03T11:36:16;65605.78;;;8.80;100.00
44675;BME280;30388;52.038;-1.478;2023-02-03T11:38:44;65561.24;;;8.73;100.00
44675;BME280;30388;52.038;-1.478;2023-02-03T11:41:16;65590.16;;;8.60;100.00
44675;BME280;30388;52.038;-1.478;2023-02-03T11:43:45;65603.80;;;8.77;100.00
44675;BME280;30388;52.038;-1.478;2023-02-03T11:46:12;65502.39;;;8.20;100.00
44675;BME280;30388;52.038;-1.478;2023-02-03T11:48:49;65561.46;;;8.23;100.00
44675;BME280;30388;52.038;-1.478;2023-02-03T11:51:29;65500.16;;;7.95;100.00
44675;BME280;30388;52.038;-1.478;2023-02-03T11:54:16;65520.92;;;8.22;100.00
44675;BME280;30388;52.038;-1.478;2023-02-03T11:57:00;65674.38;;;9.22;100.00
44675;BME280;30388;52.038;-1.478;2023-02-03T11:59:44;65560.98;;;8.23;100.00
44675;BME280;30388;52.038;-1.478;2023-02-03T12:02:59;65691.25;;;9.88;100.00
44675;BME280;30388;52.038;-1.478;2023-02-03T12:06:12;65668.15;;;9.14;100.00
44675;BME280;30388;52.038;-1.478;2023-02-03T12:08:53;65807.65;;;10.41;100.00
44675;BME280;30388;52.038;-1.478;2023-02-03T12:11:33;65650.90;;;8.93;100.00
44675;BME280;30388;52.038;-1.478;2023-02-03T12:14:26;65628.04;;;9.07;100.00
44675;BME280;30388;52.038;-1.478;2023-02-03T12:17:12;65581.45;;;8.76;100.00
44675;BME280;30388;52.038;-1.478;2023-02-03T12:19:56;65556.15;;;8.66;100.00
44675;BME280;30388;52.038;-1.478;2023-02-03T12:22:28;65615.55;;;8.92;100.00
44675;BME280;30388;52.038;-1.478;2023-02-03T12:25:06;65729.88;;;9.66;100.00
44675;BME280;30388;52.038;-1.478;2023-02-03T12:27:46;65676.13;;;9.24;100.00
44675;BME280;30388;52.038;-1.478;2023-02-03T12:30:21;65739.46;;;9.77;100.00
44675;BME280;30388;52.038;-1.478;2023-02-03T12:32:52;65713.40;;;9.45;100.00
44675;BME280;30388;52.038;-1.478;2023-02-03T12:35:24;65749.42;;;9.68;100.00
44675;BME280;30388;52.038;-1.478;2023-02-03T12:37:57;65714.10;;;9.46;100.00
44675;BME280;30388;52.038;-1.478;2023-02-03T12:40:34;65676.70;;;9.47;100.00
44675;BME280;30388;52.038;-1.478;2023-02-03T12:43:16;65679.99;;;9.74;100.00
44675;BME280;30388;52.038;-1.478;2023-02-03T12:45:50;65647.50;;;9.10;100.00
44675;BME280;30388;52.038;-1.478;2023-02-03T12:48:22;65604.07;;;8.77;100.00
44675;BME280;30388;52.038;-1.478;2023-02-03T12:50:55;65680.63;;;9.30;100.00
44675;BME280;30388;52.038;-1.478;2023-02-03T12:53:29;65745.09;;;10.12;100.00
44675;BME280;30388;52.038;-1.478;2023-02-03T12:56:02;65728.14;;;9.90;100.00
44675;BME280;30388;52.038;-1.478;2023-02-03T12:58:32;65615.13;;;8.92;100.00
44675;BME280;30388;52.038;-1.478;2023-02-03T13:01:06;65679.83;;;9.29;100.00
44675;BME280;30388;52.038;-1.478;2023-02-03T13:03:40;65779.30;;;10.05;100.00
44675;BME280;30388;52.038;-1.478;2023-02-03T13:06:15;65725.96;;;9.87;100.00
44675;BME280;30388;52.038;-1.478;2023-02-03T13:08:52;65775.75;;;10.01;100.00